Time;durP1;ratioP1;P1;durP2;ratioP2;P2;SDS_P1;SDS_P2;PMS_P1;PMS_P2;Temp;Humidity;BMP_temperature;BMP_pressure;BME280_temperature;BME280_humidity;BME280_pressure;Samples;Min_cycle;Max_cycle;Signal;HPM_P1;HPM_P2
2024/03/06 00:00:04;;;;;;;10.38;5.05;;;;;;;9.40;66.19;99961.72;4177560;28;20026;-70
2024/03/06 00:02:04;;;;;;;8.85;4.95;;;;;;;9.40;65.97;99967.03;4166050;28;20141;-70
2024/03/06 00:04:05;;;;;;;8.80;5.15;;;;;;;9.38;66.13;99963.66;4179083;28;20416;-70
2024/03/06 00:06:06;;;;;;;10.00;6.07;;;;;;;9.47;65.92;99960.16;4177208;28;20029;-70
2024/03/06 00:08:06;;;;;;;8.18;5.53;;;;;;;9.49;65.64;99966.22;4174054;28;20024;-70
2024/03/06 00:10:08;;;;;;;8.98;4.93;;;;;;;9.49;65.60;99966.22;4179646;28;20032;-70
2024/03/06 00:12:08;;;;;;;8.85;6.03;;;;;;;9.47;65.63;99967.34;4176032;28;20036;-69
2024/03/06 00:14:09;;;;;;;8.80;5.28;;;;;;;9.46;65.72;99961.13;4175533;28;20373;-70
2024/03/06 00:16:09;;;;;;;9.30;5.47;;;;;;;9.47;65.68;99960.16;4174079;28;20086;-70
2024/03/06 00:18:10;;;;;;;10.20;6.78;;;;;;;9.33;66.08;99965.91;4176782;28;20589;-70
2024/03/06 00:20:11;;;;;;;10.18;7.25;;;;;;;9.28;66.35;99963.66;4175231;28;20080;-69
2024/03/06 00:22:11;;;;;;;11.25;6.15;;;;;;;9.34;66.29;99970.28;4181361;28;20029;-70
2024/03/06 00:24:13;;;;;;;10.45;6.70;;;;;;;9.42;66.02;99970.44;4173822;28;20864;-70
2024/03/06 00:26:13;;;;;;;;;;;;;;;9.40;66.14;99974.22;4173028;28;20453;-72
2024/03/06 00:28:13;;;;;;;;;;;;;;;9.36;66.21;99978.97;4177236;28;19916;-69
2024/03/06 00:30:14;;;;;;;;;;;;;;;9.25;67.21;99968.44;4174324;28;19938;-70
2024/03/06 00:32:14;;;;;;;;;;;;;;;9.28;66.53;99974.34;4173047;28;19913;-70
2024/03/06 00:34:15;;;;;;;;;;;;;;;9.30;66.49;99974.19;4179664;28;19913;-70
2024/03/06 00:36:15;;;;;;;;;;;;;;;9.41;66.48;99971.41;4173582;28;20327;-70
2024/03/06 00:38:15;;;;;;;;;;;;;;;9.43;65.75;99972.13;4173906;28;20399;-70
2024/03/06 00:40:16;;;;;;;;;;;;;;;9.36;66.66;99976.28;4173661;28;19916;-70
2024/03/06 00:42:16;;;;;;;;;;;;;;;9.34;66.37;99983.63;4173470;28;19948;-70
2024/03/06 00:44:17;;;;;;;;;;;;;;;9.40;66.10;99977.72;4173858;28;19913;-70
2024/03/06 00:46:17;;;;;;;;;;;;;;;9.35;66.24;99974.63;4173841;28;19920;-70
2024/03/06 00:48:20;;;;;;;;;;;;;;;9.34;66.32;99979.13;4173779;28;19909;-71
2024/03/06 00:50:21;;;;;;;;;;;;;;;9.30;66.49;99983.06;4173899;28;19992;-70
2024/03/06 00:52:22;;;;;;;;;;;;;;;9.28;66.57;99981.47;4175539;28;19908;-71
2024/03/06 00:54:22;;;;;;;;;;;;;;;9.26;66.44;99983.47;4173278;28;19955;-71
2024/03/06 00:56:23;;;;;;;;;;;;;;;9.25;66.30;99982.59;4173594;28;20478;-70
2024/03/06 00:58:23;;;;;;;;;;;;;;;9.26;66.71;99989.63;4172245;28;19913;-70
2024/03/06 01:00:24;;;;;;;;;;;;;;;9.35;66.25;99986.13;4166596;28;19909;-70
2024/03/06 01:02:24;;;;;;;;;;;;;;;9.40;66.15;99996.38;4173380;28;19925;-69
2024/03/06 01:04:24;;;;;;;;;;;;;;;9.42;66.08;99991.75;4173238;28;19941;-69
2024/03/06 01:06:24;;;;;;;;;;;;;;;9.42;65.81;99988.25;4172051;28;19935;-70
2024/03/06 01:08:25;;;;;;;;;;;;;;;9.40;65.77;99993.72;4173392;28;20014;-70
2024/03/06 01:10:25;;;;;;;;;;;;;;;9.24;66.30;99990.75;4173323;28;20320;-70
2024/03/06 01:12:25;;;;;;;;;;;;;;;9.31;66.50;99995.38;4173388;28;19966;-70
2024/03/06 01:14:26;;;;;;;;;;;;;;;9.38;66.28;99998.34;4166334;28;20369;-70
2024/03/06 01:16:26;;;;;;;;;;;;;;;9.39;66.11;99983.19;4173103;28;19920;-70
2024/03/06 01:18:26;;;;;;;;;;;;;;;9.42;65.88;99985.56;4172156;28;20439;-71
2024/03/06 01:20:27;;;;;;;;;;;;;;;9.38;65.78;99990.34;4173762;28;20392;-70
2024/03/06 01:22:27;;;;;;;;;;;;;;;9.29;66.23;99991.19;4173169;28;19909;-70
2024/03/06 01:24:27;;;;;;;;;;;;;;;9.33;66.12;99987.25;4172667;28;19913;-71
2024/03/06 01:26:27;;;;;;;;;;;;;;;9.32;65.89;99990.91;4180070;28;19916;-71
2024/03/06 01:28:28;;;;;;;;;;;;;;;9.29;66.30;99985.84;4173581;28;20423;-70
2024/03/06 01:30:28;;;;;;;;;;;;;;;9.34;66.54;99986.28;4173147;28;20289;-70
2024/03/06 01:32:29;;;;;;;;;;;;;;;9.41;66.36;99983.88;4173650;28;19931;-69
2024/03/06 01:34:29;;;;;;;;;;;;;;;9.35;66.26;99985.31;4173432;28;19909;-69
2024/03/06 01:36:29;;;;;;;;;;;;;;;9.39;66.46;99992.03;4174409;28;19915;-70
2024/03/06 01:38:30;;;;;;;;;;;;;;;9.35;66.60;99988.81;4173396;28;19997;-70
2024/03/06 01:40:31;;;;;;;;;;;;;;;9.34;66.63;99996.97;4173479;28;19913;-70
2024/03/06 01:42:31;;;;;;;;;;;;;;;9.29;66.48;99993.84;4173202;28;19909;-70
2024/03/06 01:44:31;;;;;;;;;;;;;;;9.25;66.81;99990.59;4172874;28;19955;-70
2024/03/06 01:46:32;;;;;;;;;;;;;;;9.35;66.67;99986.13;4171381;28;19916;-70
2024/03/06 01:48:33;;;;;;;;;;;;;;;9.39;66.20;99986.69;4173136;28;19913;-69
2024/03/06 01:50:33;;;;;;;;;;;;;;;9.25;67.18;99997.78;4178739;28;19912;-70
2024/03/06 01:52:33;;;;;;;;;;;;;;;9.26;67.29;99986.97;4172958;28;19974;-70
2024/03/06 01:54:34;;;;;;;;;;;;;;;9.21;67.73;99990.03;4172703;28;19916;-70
2024/03/06 01:56:35;;;;;;;;;;;;;;;9.26;67.68;99988.81;4180938;28;20763;-70
2024/03/06 01:58:35;;;;;;;;;;;;;;;9.17;67.86;99985.94;4165535;28;19940;-70
2024/03/06 02:00:36;;;;;;;;;;;;;;;9.25;67.45;99989.78;4170138;28;19908;-69
2024/03/06 02:02:37;;;;;;;;;;;;;;;9.23;67.44;99984.56;4172261;28;19932;-70
2024/03/06 02:04:37;;;;;;;;;;;;;;;9.16;67.77;99989.59;4170685;28;20385;-70
2024/03/06 02:06:38;;;;;;;;;;;;;;;9.19;68.04;100002.66;4171646;28;20376;-70
2024/03/06 02:08:39;;;;;;;;;;;;;;;9.14;67.77;99994.25;4164221;28;19941;-70
2024/03/06 02:10:39;;;;;;;;;;;;;;;9.07;67.96;99992.25;4164382;28;19920;-70
2024/03/06 02:12:41;;;;;;;;;;;;;;;9.11;67.86;99989.19;4164307;28;20289;-70
2024/03/06 02:14:41;;;;;;;;;;;;;;;9.13;67.62;99997.88;4174657;28;19920;-69
2024/03/06 02:16:41;;;;;;;;;;;;;;;9.09;67.57;99993.78;4172233;28;19909;-69
2024/03/06 02:18:52;;;;;;;;;;;;;;;9.05;67.96;100000.41;4171018;28;19952;-70
2024/03/06 02:20:52;;;;;;;;;;;;;;;8.98;67.95;99988.56;4170822;28;20285;-69
2024/03/06 02:22:53;;;;;;;;;;;;;;;9.01;67.98;99990.97;4173097;28;19908;-69
2024/03/06 02:24:53;;;;;;;;;;;;;;;9.07;67.58;99993.09;4171533;28;20269;-69
2024/03/06 02:26:53;;;;;;;;;;;;;;;8.99;67.83;100006.25;4170424;28;20026;-69
2024/03/06 02:28:54;;;;;;;;;;;;;;;8.90;67.85;100000.75;4172507;28;19909;-70
2024/03/06 02:30:54;;;;;;;;;;;;;;;8.92;68.01;100005.13;4172743;28;20473;-70
2024/03/06 02:32:55;;;;;;;;;;;;;;;8.90;68.21;100003.44;4166616;28;19913;-70
2024/03/06 02:34:55;;;;;;;;;;;;;;;8.91;68.24;100001.63;4172046;28;19922;-69
2024/03/06 02:36:56;;;;;;;;;;;;;;;8.86;68.36;99998.50;4172675;28;20406;-71
2024/03/06 02:38:56;;;;;;;;;;;;;;;8.82;68.26;100000.59;4170396;28;20373;-71
2024/03/06 02:40:57;;;;;;;;;;;;;;;8.77;68.76;99994.84;4171941;28;19920;-71
2024/03/06 02:42:57;;;;;;;;;;;;;;;8.88;68.39;99994.72;4163825;28;20043;-71
2024/03/06 02:44:57;;;;;;;;;;;;;;;8.85;68.15;100000.34;4166693;28;19912;-71
2024/03/06 02:46:58;;;;;;;;;;;;;;;8.77;68.74;99997.50;4169202;28;19909;-71
2024/03/06 02:48:58;;;;;;;;;;;;;;;8.67;69.63;99994.78;4181847;28;19909;-71
2024/03/06 02:50:59;;;;;;;;;;;;;;;8.67;69.29;99989.44;4182033;28;19908;-71
2024/03/06 02:52:59;;;;;;;;;;;;;;;8.68;69.77;99990.31;4178300;28;20007;-71
2024/03/06 02:55:00;;;;;;;;;;;;;;;8.71;69.66;99990.88;4177871;28;20306;-72
2024/03/06 02:57:00;;;;;;;;;;;;;;;8.79;69.42;99989.34;4179071;28;19909;-71
2024/03/06 02:59:02;;;;;;;;;;;;;;;8.80;69.02;99991.88;4179410;28;19909;-70
2024/03/06 03:01:03;;;;;;;;;;;;;;;8.76;69.25;99998.47;4178909;28;19913;-71
2024/03/06 03:03:03;;;;;;;;;;;;;;;8.70;69.31;100002.53;4181858;28;20384;-70
2024/03/06 03:05:04;;;;;;;;;;;;;;;8.67;69.57;99992.13;4172045;28;20511;-70
2024/03/06 03:07:05;;;;;;;;;;;;;;;8.65;69.88;100002.06;4168844;28;19975;-70
2024/03/06 03:09:05;;;;;;;;;;;;;;;8.71;69.64;100001.53;4170468;28;19921;-70
2024/03/06 03:11:06;;;;;;;;;;;;;;;8.78;69.40;100004.53;4171205;28;20503;-70
2024/03/06 03:13:06;;;;;;;;;;;;;;;8.72;69.39;99994.38;4170402;28;19909;-70
2024/03/06 03:15:06;;;;;;;;;;;;;;;8.67;69.55;99996.63;4169986;28;20412;-70
2024/03/06 03:17:07;;;;;;;;;;;;;;;8.55;69.94;99999.38;4171204;28;19908;-70
2024/03/06 03:19:08;;;;;;;;;;;;;;;8.62;69.60;99993.50;4170476;28;19913;-70
2024/03/06 03:21:08;;;;;;;;;;;;;;;8.67;69.35;99992.13;4170267;28;20385;-70
2024/03/06 03:23:11;;;;;;;;;;;;;;;8.68;69.20;99993.81;4171271;28;19917;-70
2024/03/06 03:25:12;;;;;;;;;;;;;;;8.61;69.12;99997.13;4166480;28;20004;-70
2024/03/06 03:27:13;;;;;;;;;;;;;;;8.56;68.89;100001.06;4171553;28;19961;-70
2024/03/06 03:29:13;;;;;;;;;;;;;;;8.54;69.73;100016.31;4176992;28;19913;-69
2024/03/06 03:31:14;;;;;;;;;;;;;;;8.52;69.45;100004.13;4171920;28;19916;-70
2024/03/06 03:33:14;;;;;;;;;;;;;;;8.49;69.52;100023.88;4171048;28;19909;-70
2024/03/06 03:35:14;;;;;;;;;;;;;;;8.37;69.74;100017.72;4171751;28;20440;-70
2024/03/06 03:37:15;;;;;;;;;;;;;;;8.36;70.01;100021.38;4172050;28;20342;-70
2024/03/06 03:39:20;;;;;;;;;;;;;;;8.40;70.16;100017.47;4171467;28;19913;-70
2024/03/06 03:41:20;;;;;;;;;;;;;;;8.39;69.87;100020.28;4170901;28;19909;-70
2024/03/06 03:43:21;;;;;;;;;;;;;;;8.40;70.34;100021.97;4170422;28;20293;-69
2024/03/06 03:45:21;;;;;;;;;;;;;;;8.46;69.98;100026.78;4170026;28;20270;-70
2024/03/06 03:47:22;;;;;;;;;;;;;;;8.55;69.71;100018.00;4169927;28;20001;-71
2024/03/06 03:49:22;;;;;;;;;;;;;;;8.56;69.66;100011.72;4169813;28;19909;-70
2024/03/06 03:51:22;;;;;;;;;;;;;;;8.62;69.51;100004.16;4175414;28;20397;-70
2024/03/06 03:53:23;;;;;;;;;;;;;;;8.46;69.56;100015.25;4171257;28;19916;-70
2024/03/06 03:55:26;;;;;;;;;;;;;;;8.45;69.49;100009.09;4171878;28;19916;-70
2024/03/06 03:57:27;;;;;;;;;;;;;;;8.43;70.10;100013.69;4171093;28;19909;-70
2024/03/06 03:59:27;;;;;;;;;;;;;;;8.26;70.83;100021.31;4175164;28;19909;-70
2024/03/06 04:01:27;;;;;;;;;;;;;;;8.28;71.13;100016.72;4170867;28;20028;-70
2024/03/06 04:03:27;;;;;;;;;;;;;;;8.20;71.06;100024.50;4167365;28;19908;-69
2024/03/06 04:05:28;;;;;;;;;;;;;;;8.27;70.55;100017.69;4173726;28;19919;-69
2024/03/06 04:07:28;;;;;;;;;;;;;;;8.30;70.46;100021.06;4171468;28;19916;-70
2024/03/06 04:09:29;;;;;;;;;;;;;;;8.26;70.99;100021.31;4167226;28;19948;-70
2024/03/06 04:11:29;;;;;;;;;;;;;;;8.22;71.02;100024.38;4171079;28;19908;-70
2024/03/06 04:13:29;;;;;;;;;;;;;;;8.30;70.46;100021.91;4169406;28;20398;-70
2024/03/06 04:15:30;;;;;;;;;;;;;;;8.30;70.51;100027.22;4171580;28;19913;-70
2024/03/06 04:17:31;;;;;;;;;;;;;;;8.27;70.33;100035.47;4170408;28;19947;-70
2024/03/06 04:19:31;;;;;;;;;;;;;;;8.17;71.16;100035.41;4171534;28;19909;-70
2024/03/06 04:21:32;;;;;;;;;;;;;;;8.12;71.03;100040.31;4171797;28;19995;-70
2024/03/06 04:23:33;;;;;;;;;;;;;;;8.00;71.96;100039.50;4170758;28;19909;-70
2024/03/06 04:25:33;;;;;;;;;;;;;;;8.06;72.09;100046.97;4171351;28;20465;-70
2024/03/06 04:27:33;;;;;;;;;;;;;;;8.11;71.73;100046.59;4169759;28;19909;-70
2024/03/06 04:29:34;;;;;;;;;;;;;;;8.12;71.61;100042.97;4171364;28;19909;-70
2024/03/06 04:31:35;;;;;;;;;;;;;;;8.18;71.26;100045.09;4164923;28;20266;-70
2024/03/06 04:33:35;;;;;;;;;;;;;;;8.26;71.57;100055.13;4166021;28;20352;-70
2024/03/06 04:35:35;;;;;;;;;;;;;;;8.34;71.13;100049.13;4165469;28;19952;-70
2024/03/06 04:37:36;;;;;;;;;;;;;;;8.38;71.24;100055.88;4163826;28;19909;-70
2024/03/06 04:39:36;;;;;;;;;;;;;;;8.43;70.05;100059.84;4166304;28;19967;-70
2024/03/06 04:41:37;;;;;;;;;;;;;;;8.43;70.33;100059.00;4165207;28;19971;-71
2024/03/06 04:43:38;;;;;;;;;;;;;;;8.44;69.89;100060.69;4166243;28;19916;-71
2024/03/06 04:45:38;;;;;;;;;;;;;;;8.32;70.40;100061.72;4164899;28;19913;-70
2024/03/06 04:47:38;;;;;;;;;;;;;;;8.38;70.27;100058.56;4165466;28;20464;-70
2024/03/06 04:49:39;;;;;;;;;;;;;;;8.42;70.32;100062.63;4167867;28;19913;-70
2024/03/06 04:51:39;;;;;;;;;;;;;;;8.44;70.04;100066.00;4166474;28;19916;-70
2024/03/06 04:53:39;;;;;;;;;;;;;;;8.49;70.12;100062.97;4165712;28;20008;-70
2024/03/06 04:55:39;;;;;;;;;;;;;;;8.46;69.91;100063.22;4166801;28;19909;-70
2024/03/06 04:57:43;;;;;;;;;;;;;;;8.42;70.53;100065.28;4165059;28;19987;-70
2024/03/06 04:59:44;;;;;;;;;;;;;;;8.44;70.08;100074.00;4164966;28;19913;-70
2024/03/06 05:01:44;;;;;;;;;;;;;;;8.46;69.98;100073.88;4173303;28;19943;-69
2024/03/06 05:03:44;;;;;;;;;;;;;;;8.42;69.91;100081.28;4164980;28;19915;-70
2024/03/06 05:05:44;;;;;;;;;;;;;;;8.24;70.57;100079.19;4165101;28;19916;-70
2024/03/06 05:07:45;;;;;;;;;;;;;;;8.22;71.07;100082.97;4174734;28;19912;-70
2024/03/06 05:09:45;;;;;;;;;;;;;;;8.19;71.37;100083.22;4173001;28;19913;-69
2024/03/06 05:11:46;;;;;;;;;;;;;;;8.22;71.36;100091.78;4180210;28;19909;-70
2024/03/06 05:13:46;;;;;;;;;;;;;;;8.26;71.16;100079.91;4171442;28;19992;-70
2024/03/06 05:15:46;;;;;;;;;;;;;;;8.28;71.24;100085.97;4173510;28;19913;-70
2024/03/06 05:17:47;;;;;;;;;;;;;;;8.20;71.28;100093.75;4171656;28;19913;-71
2024/03/06 05:19:49;;;;;;;;;;;;;;;8.24;71.19;100092.50;4172807;28;20369;-70
2024/03/06 05:21:49;;;;;;;;;;;;;;;8.16;71.44;100094.16;4172285;28;19909;-71
2024/03/06 05:23:49;;;;;;;;;;;;;;;8.25;71.23;100094.19;4171176;28;19912;-70
2024/03/06 05:25:49;;;;;;;;;;;;;;;8.33;71.04;100093.56;4171294;28;19940;-70
2024/03/06 05:27:50;;;;;;;;;;;;;;;8.43;70.93;100101.63;4169753;28;20420;-70
2024/03/06 05:29:51;;;;;;;;;;;;;;;8.53;70.65;100094.56;4172156;28;20277;-70
2024/03/06 05:31:51;;;;;;;;;;;;;;;8.45;70.73;100104.16;4178378;28;19977;-70
2024/03/06 05:33:51;;;;;;;;;;;;;;;8.59;70.46;100109.19;4172519;28;19908;-70
2024/03/06 05:35:51;;;;;;;;;;;;;;;8.58;70.06;100105.69;4172990;28;20007;-70
2024/03/06 05:37:52;;;;;;;;;;;;;;;8.65;70.68;100111.31;4172101;28;19908;-70
2024/03/06 05:39:52;;;;;;;;;;;;;;;8.69;70.38;100117.25;4172539;28;19916;-70
2024/03/06 05:41:59;;;;;;;;;;;;;;;8.62;69.95;100111.59;4170698;28;20377;-70
2024/03/06 05:43:59;;;;;;;;;;;;;;;8.74;69.95;100120.38;4172552;28;19916;-70
2024/03/06 05:46:00;;;;;;;;;;;;;;;8.55;69.92;100121.06;4170649;28;20511;-70
2024/03/06 05:48:00;;;;;;;;;;;;;;;8.57;70.62;100120.00;4172291;28;20424;-70
2024/03/06 05:50:04;;;;;;;;;;;;;;;8.58;70.48;100121.69;4171683;28;19909;-70
2024/03/06 05:52:04;;;;;;;;;;;;;;;8.58;70.31;100121.69;4172653;28;19909;-70
2024/03/06 05:54:08;;;;;;;;;;;;;;;8.68;69.97;100120.91;4172063;28;19912;-70
2024/03/06 05:56:08;;;;;;;;;;;;;;;8.71;69.87;100120.63;4171852;28;19909;-70
2024/03/06 05:58:08;;;;;;;;;;;;;;;8.60;69.90;100129.53;4163825;28;19935;-70
2024/03/06 06:00:11;;;;;;;;;;;;;;;8.49;70.86;100132.25;4162588;28;19967;-70
2024/03/06 06:02:11;;;;;;;;;;;;;;;8.46;70.68;100133.34;4163812;28;20016;-70
2024/03/06 06:04:14;;;;;;;;;;;;;;;8.49;70.68;100133.13;4163330;28;20434;-70
2024/03/06 06:06:15;;;;;;;;;;;;;;;8.56;70.78;100139.63;4163702;28;19909;-71
2024/03/06 06:08:15;;;;;;;;;;;;;;;8.57;71.08;100140.44;4163333;28;20050;-70
2024/03/06 06:10:15;;;;;;;;;;;;;;;8.63;70.52;100136.41;4163799;28;19909;-70
2024/03/06 06:12:16;;;;;;;;;;;;;;;8.64;70.07;100138.13;4163493;28;19915;-70
2024/03/06 06:14:16;;;;;;;;;;;;;;;8.69;70.58;100143.91;4170598;28;19909;-70
2024/03/06 06:16:17;;;;;;;;;;;;;;;8.69;70.20;100143.91;4171954;28;20373;-71
2024/03/06 06:18:17;;;;;;;;;;;;;;;8.73;70.23;100150.66;4171613;28;19916;-70
2024/03/06 06:20:18;;;;;;;;;;;;;;;8.72;70.31;100159.63;4171611;28;19913;-70
2024/03/06 06:22:18;;;;;;;;;;;;;;;8.73;70.19;100156.84;4171656;28;19909;-69
2024/03/06 06:24:19;;;;;;;;;;;;;;;8.69;70.63;100160.75;4170012;28;19963;-70
2024/03/06 06:26:20;;;;;;;;;;;;;;;8.74;70.05;100166.50;4171256;28;20000;-70
2024/03/06 06:28:20;;;;;;;;;;;;;;;8.68;70.40;100169.72;4171586;28;20358;-70
2024/03/06 06:30:21;;;;;;;;;;;;;;;8.70;69.84;100166.91;4171487;28;20047;-70
2024/03/06 06:32:21;;;;;;;;;;;;;;;8.57;70.10;100173.28;4172424;28;19909;-70
2024/03/06 06:34:21;;;;;;;;;;;;;;;8.62;70.38;100167.56;4171565;28;20478;-70
2024/03/06 06:36:21;;;;;;;;;;;;;;;8.58;69.74;100172.31;4172042;28;19916;-71
2024/03/06 06:38:22;;;;;;;;;;;;;;;8.64;69.81;100183.41;4173272;28;19909;-70
2024/03/06 06:40:22;;;;;;;;;;;;;;;8.71;69.55;100185.44;4172353;28;19920;-69
2024/03/06 06:42:24;;;;;;;;;;;;;;;8.73;69.50;100185.31;4171326;28;19909;-69
2024/03/06 06:44:25;;;;;;;;;;;;;;;8.76;69.61;100182.41;4169524;28;20368;-70
2024/03/06 06:46:25;;;;;;;;;;;;;;;8.77;69.41;100181.44;4171058;28;19913;-70
2024/03/06 06:48:25;;;;;;;;;;;;;;;8.72;69.54;100187.16;4169793;28;19952;-69
2024/03/06 06:50:27;;;;;;;;;;;;;;;8.74;69.77;100190.50;4171332;28;19916;-70
2024/03/06 06:52:28;;;;;;;;;;;;;;;8.71;69.46;100188.13;4171193;28;19975;-70
2024/03/06 06:54:29;;;;;;;;;;;;;;;8.73;69.41;100190.63;4170778;28;19963;-70
2024/03/06 06:56:29;;;;;;;;;;;;;;;8.77;69.45;100192.09;4170921;28;19916;-70
2024/03/06 06:58:29;;;;;;;;;;;;;;;8.85;69.39;100194.94;4164498;28;19916;-69
2024/03/06 07:00:30;;;;;;;;;;;;;;;8.87;68.38;100202.81;4179004;28;19952;-70
2024/03/06 07:02:30;;;;;;;;;;;;;;;8.80;68.99;100199.81;4171167;28;19917;-70
2024/03/06 07:04:30;;;;;;;;;;;;;;;8.78;69.29;100201.78;4172270;28;19916;-71
2024/03/06 07:06:31;;;;;;;;;;;;;;;8.78;69.61;100200.91;4170866;28;19916;-70
2024/03/06 07:08:31;;;;;;;;;;;;;;;8.77;69.30;100202.75;4175654;28;19908;-70
2024/03/06 07:10:31;;;;;;;;;;;;;;;8.80;69.05;100199.81;4170903;28;19944;-69
2024/03/06 07:12:32;;;;;;;;;;;;;;;8.78;69.24;100204.44;4172068;28;20320;-69
2024/03/06 07:14:32;;;;;;;;;;;;;;;8.82;69.75;100207.69;4169254;28;19913;-70
2024/03/06 07:16:32;;;;;;;;;;;;;;;8.84;69.29;100200.38;4171054;28;20056;-70
2024/03/06 07:18:33;;;;;;;;;;;;;;;8.83;69.75;100204.88;4170886;28;20415;-70
2024/03/06 07:20:33;;;;;;;;;;;;;;;8.77;69.08;100205.41;4170776;28;20293;-70
2024/03/06 07:22:33;;;;;;;;;;;;;;;8.73;69.04;100214.63;4170585;28;20213;-70
2024/03/06 07:24:34;;;;;;;;;;;;;;;8.78;70.01;100209.78;4170075;28;19919;-70
2024/03/06 07:26:35;;;;;;;;;;;;;;;8.83;69.29;100215.56;4170519;28;19909;-70
2024/03/06 07:28:35;;;;;;;;;;;;;;;8.89;69.29;100209.69;4167479;28;20381;-71
2024/03/06 07:30:36;;;;;;;;;;;;;;;8.87;69.56;100218.81;4171025;28;19912;-70
2024/03/06 07:32:36;;;;;;;;;;;;;;;8.74;69.77;100217.16;4163984;28;20015;-70
2024/03/06 07:34:36;;;;;;;;;;;;;;;8.79;69.88;100224.75;4165067;28;20408;-70
2024/03/06 07:36:37;;;;;;;;;;;;;;;8.85;69.85;100218.06;4177905;28;19913;-69
2024/03/06 07:38:37;;;;;;;;;;;;;;;8.76;69.88;100221.50;4172930;28;19908;-69
2024/03/06 07:40:37;;;;;;;;;;;;;;;8.83;69.60;100225.38;4175229;28;19909;-69
2024/03/06 07:42:38;;;;;;;;;;;;;;;8.86;70.17;100214.44;4180261;28;19932;-69
2024/03/06 07:44:38;;;;;;;;;;;;;;;8.88;69.40;100233.81;4183333;28;19913;-70
2024/03/06 07:46:39;;;;;;;;;;;;;;;8.92;69.64;100223.75;4171526;28;19916;-68
2024/03/06 07:48:44;;;;;;;;;;;;;;;8.95;69.77;100226.16;4174144;28;19913;-69
2024/03/06 07:50:44;;;;;;;;;;;;;;;8.88;69.96;100229.31;4179379;28;20288;-70
2024/03/06 07:52:47;;;;;;;;;;;;;;;8.87;69.94;100233.00;4175157;28;19909;-71
2024/03/06 07:54:48;;;;;;;;;;;;;;;8.93;69.89;100236.09;4166321;28;19912;-70
2024/03/06 07:56:48;;;;;;;;;;;;;;;8.95;70.25;100242.16;4167293;28;19916;-70
2024/03/06 07:58:49;;;;;;;;;;;;;;;8.89;70.19;100240.84;4176504;28;19908;-70
2024/03/06 08:00:49;;;;;;;;;;;;;;;8.94;69.72;100243.97;4184892;28;19909;-70
2024/03/06 08:02:50;;;;;;;;;;;;;;;8.92;70.10;100235.28;4183212;28;19908;-70
2024/03/06 08:04:50;;;;;;;;;;;;;;;8.94;69.45;100243.97;4192760;28;19913;-70
2024/03/06 08:06:50;;;;;;;;;;;;;;;9.05;69.71;100232.41;4191318;28;19912;-70
2024/03/06 08:08:51;;;;;;;;;;;;;;;9.09;69.91;100236.47;4187094;28;19998;-69
2024/03/06 08:10:52;;;;;;;;;;;;;;;9.12;69.85;100246.91;4192678;28;19934;-70
2024/03/06 08:12:52;;;;;;;;;;;;;;;9.13;69.80;100248.59;4185135;28;19944;-70
2024/03/06 08:14:54;;;;;;;;;;;;;;;9.16;69.25;100252.81;4184259;28;19908;-70
2024/03/06 08:16:55;;;;;;;;;;;;;;;9.25;69.33;100251.19;4188075;28;19909;-71
2024/03/06 08:18:57;;;;;;;;;;;;;;;9.15;69.25;100252.00;4191716;28;19919;-72
2024/03/06 08:20:57;;;;;;;;;;;;;;;9.15;70.50;100253.78;4190354;28;20003;-73
2024/03/06 08:22:58;;;;;;;;;;;;;;;9.30;70.20;100251.63;4174874;28;19908;-70
2024/03/06 08:24:58;;;;;;;;;;;;;;;9.14;70.35;100258.28;4171354;28;19913;-69
2024/03/06 08:26:59;;;;;;;;;;;;;;;9.24;70.14;100254.84;4173844;28;19955;-70
2024/03/06 08:29:00;;;;;;;;;;;;;;;9.27;69.95;100247.41;4173868;28;19916;-72
2024/03/06 08:31:00;;;;;;;;;;;;;;;9.34;69.61;100255.75;4174133;28;20353;-72
2024/03/06 08:33:01;;;;;;;;;;;;;;;9.28;70.67;100254.44;4168545;28;20372;-71
2024/03/06 08:35:11;;;;;;;;;;;;;;;9.27;69.59;100254.56;4173913;28;20000;-70
2024/03/06 08:37:12;;;;;;;;;;;;;;;9.30;69.71;100248.97;4176278;28;20399;-70
2024/03/06 08:39:15;;;;;;;;;;;;;;;9.27;70.81;100257.22;4175012;28;20304;-70
2024/03/06 08:41:15;;;;;;;;;;;;;;;9.25;70.13;100261.88;4174347;28;19976;-70
2024/03/06 08:43:16;;;;;;;;;;;;;;;8.96;70.44;100252.69;4175081;28;19913;-69
2024/03/06 08:45:16;;;;;;;;;;;;;;;9.27;70.79;100259.91;4180939;28;20472;-70
2024/03/06 08:47:17;;;;;;;;;;;;;;;9.29;69.85;100265.94;4174166;28;20404;-70
2024/03/06 08:49:17;;;;;;;;;;;;;;;9.41;69.63;100256.91;4173596;28;19920;-70
2024/03/06 08:51:17;;;;;;;;;;;;;;;9.46;69.72;100262.69;4173619;28;20533;-69
2024/03/06 08:53:18;;;;;;;;;;;;;;;9.33;70.25;100267.41;4172057;28;20356;-70
2024/03/06 08:55:19;;;;;;;;;;;;;;;9.11;70.75;100266.53;4173394;28;20364;-70
2024/03/06 08:57:21;;;;;;;;;;;;;;;9.09;70.06;100260.50;4175252;28;20432;-70
2024/03/06 08:59:21;;;;;;;;;;;;;;;9.09;70.93;100265.81;4171653;28;20431;-70
2024/03/06 09:01:22;;;;;;;;;;;;;;;8.89;71.85;100279.00;4180748;28;19972;-70
2024/03/06 09:03:23;;;;;;;;;;;;;;;8.64;72.24;100274.03;4170719;28;19915;-69
2024/03/06 09:05:23;;;;;;;;;;;;;;;9.14;71.52;100273.44;4173269;28;19999;-70
2024/03/06 09:07:23;;;;;;;;;;;;;;;9.38;70.62;100273.16;4165739;28;19916;-69
2024/03/06 09:09:24;;;;;;;;;;;;;;;9.32;70.83;100266.53;4183958;28;19911;-70
2024/03/06 09:11:24;;;;;;;;;;;;;;;9.38;71.13;100272.34;4185756;28;20291;-70
2024/03/06 09:13:25;;;;;;;;;;;;;;;9.36;70.65;100277.78;4185896;28;19975;-70
2024/03/06 09:15:25;;;;;;;;;;;;;;;9.54;70.15;100269.19;4187663;28;19913;-71
2024/03/06 09:17:26;;;;;;;;;;;;;;;9.43;70.36;100270.09;4183829;28;19959;-70
2024/03/06 09:19:27;;;;;;;;;;;;;;;9.63;69.73;100261.22;4188152;28;19909;-70
2024/03/06 09:21:28;;;;;;;;;;;;;;;9.72;69.91;100270.28;4188026;28;19908;-70
2024/03/06 09:23:30;;;;;;;;;;;;;;;9.68;70.07;100274.16;4187152;28;20057;-71
2024/03/06 09:25:30;;;;;;;;;;;;;;;9.59;70.03;100267.78;4186408;28;19920;-69
2024/03/06 09:27:32;;;;;;;;;;;;;;;9.51;70.68;100265.81;4180859;28;19908;-69
2024/03/06 09:29:33;;;;;;;;;;;;;;;9.71;70.32;100262.38;4173565;28;19909;-70
2024/03/06 09:31:33;;;;;;;;;;;;;;;9.86;69.80;100268.19;4173276;28;20045;-69
2024/03/06 09:33:33;;;;;;;;;;;;;;;9.88;70.19;100271.59;4172367;28;19912;-70
2024/03/06 09:35:34;;;;;;;;;;;;;;;9.75;69.83;100269.16;4172753;28;19912;-69
2024/03/06 09:37:35;;;;;;;;;;;;;;;9.90;70.06;100277.66;4172804;28;19908;-69
2024/03/06 09:39:35;;;;;;;;;;;;;;;9.91;70.15;100269.50;4173304;28;19908;-70
2024/03/06 09:41:35;;;;;;;;;;;;;;;9.83;69.91;100286.16;4172848;28;20397;-70
2024/03/06 09:43:36;;;;;;;;;;;;;;;9.88;69.58;100293.78;4164260;28;19909;-69
2024/03/06 09:45:37;;;;;;;;;;;;;;;9.90;69.40;100288.31;4164171;28;19913;-69
2024/03/06 09:47:38;;;;;;;;;;;;;;;9.72;69.62;100291.63;4164571;28;20012;-70
2024/03/06 09:49:39;;;;;;;;;;;;;;;9.73;69.87;100290.63;4163998;28;19916;-70
2024/03/06 09:51:42;;;;;;;;;;;;;;;9.91;69.79;100287.34;4164479;28;20003;-70
2024/03/06 09:53:45;;;;;;;;;;;;;;;9.79;69.75;100292.78;4164068;28;20044;-70
2024/03/06 09:55:46;;;;;;;;;;;;;;;9.42;71.09;100301.28;4164739;28;19919;-70
2024/03/06 09:57:46;;;;;;;;;;;;;;;9.48;71.22;100295.41;4163996;28;19952;-69
2024/03/06 09:59:46;;;;;;;;;;;;;;;9.73;70.82;100298.63;4167152;28;19922;-70
2024/03/06 10:01:53;;;;;;;;;;;;;;;9.70;70.66;100295.38;4162475;28;20283;-70
2024/03/06 10:03:53;;;;;;;;;;;;;;;9.95;70.41;100302.09;4174503;28;19912;-69
2024/03/06 10:05:55;;;;;;;;;;;;;;;9.88;70.50;100300.97;4170355;28;20561;-69
2024/03/06 10:07:56;;;;;;;;;;;;;;;10.00;69.80;100297.22;4172012;28;19935;-69
2024/03/06 10:09:56;;;;;;;;;;;;;;;9.99;70.40;100290.19;4177963;28;19909;-71
2024/03/06 10:11:57;;;;;;;;;;;;;;;9.92;70.06;100292.53;4171921;28;20400;-70
2024/03/06 10:13:58;;;;;;;;;;;;;;;9.95;70.12;100286.94;4166554;28;20658;-70
2024/03/06 10:16:02;;;;;;;;;;;;;;;10.11;70.45;100294.41;4172191;28;19916;-69
2024/03/06 10:18:13;;;;;;;;;;;;;;;10.26;70.09;100288.72;4175696;28;19995;-68
2024/03/06 10:20:23;;;;;;;;;;;;;;;10.37;69.79;100288.63;4169233;28;19909;-69
2024/03/06 10:22:24;;;;;;;;;;;;;;;10.40;69.63;100288.34;4172079;28;19977;-69
2024/03/06 10:24:25;;;;;;;;;;;;;;;10.37;69.97;100293.09;4173442;28;19908;-70
2024/03/06 10:26:30;;;;;;;;;;;;;;;10.39;69.76;100292.00;4178496;28;19916;-70